sensor_id;sensor_type;location;lat;lon;timestamp;pressure;altitude;pressure_sealevel;temperature;humidity
5126;BME280;63008;53.112;8.896;2023-05-11T00:01:08;101415.59;;;12.65;100.00
5126;BME280;63008;53.112;8.896;2023-05-11T00:03:09;101407.69;;;12.55;100.00
5126;BME280;63008;53.112;8.896;2023-05-11T00:05:10;101411.13;;;12.52;100.00
5126;BME280;63008;53.112;8.896;2023-05-11T00:07:11;101416.47;;;12.49;100.00
5126;BME280;63008;53.112;8.896;2023-05-11T00:09:12;101408.38;;;12.52;100.00
5126;BME280;63008;53.112;8.896;2023-05-11T00:11:13;101408.88;;;12.46;100.00
5126;BME280;63008;53.112;8.896;2023-05-11T00:13:14;101412.97;;;12.40;100.00
5126;BME280;63008;53.112;8.896;2023-05-11T00:15:16;101404.75;;;12.23;100.00
5126;BME280;63008;53.112;8.896;2023-05-11T00:17:16;101406.22;;;12.20;100.00
5126;BME280;63008;53.112;8.896;2023-05-11T00:19:19;101403.34;;;12.08;100.00
5126;BME280;63008;53.112;8.896;2023-05-11T00:21:20;101405.63;;;12.06;100.00
5126;BME280;63008;53.112;8.896;2023-05-11T00:23:22;101420.59;;;12.26;100.00
5126;BME280;63008;53.112;8.896;2023-05-11T00:25:26;101413.63;;;12.37;100.00
5126;BME280;63008;53.112;8.896;2023-05-11T00:27:27;101419.59;;;12.39;100.00
5126;BME280;63008;53.112;8.896;2023-05-11T00:29:28;101420.22;;;12.44;100.00
5126;BME280;63008;53.112;8.896;2023-05-11T00:31:29;101411.84;;;12.32;100.00
5126;BME280;63008;53.112;8.896;2023-05-11T00:33:30;101413.44;;;12.42;100.00
5126;BME280;63008;53.112;8.896;2023-05-11T00:35:31;101414.47;;;12.20;100.00
5126;BME280;63008;53.112;8.896;2023-05-11T00:37:32;101409.34;;;12.10;100.00
5126;BME280;63008;53.112;8.896;2023-05-11T00:39:33;101408.47;;;12.18;100.00
5126;BME280;63008;53.112;8.896;2023-05-11T00:41:39;101403.81;;;12.10;100.00
5126;BME280;63008;53.112;8.896;2023-05-11T00:43:40;101404.75;;;12.23;100.00
5126;BME280;63008;53.112;8.896;2023-05-11T00:45:41;101401.06;;;12.10;100.00
5126;BME280;63008;53.112;8.896;2023-05-11T00:47:42;101405.44;;;12.11;100.00
5126;BME280;63008;53.112;8.896;2023-05-11T00:49:44;101408.97;;;12.12;100.00
5126;BME280;63008;53.112;8.896;2023-05-11T00:51:45;101404.75;;;12.23;100.00
5126;BME280;63008;53.112;8.896;2023-05-11T00:53:48;101405.72;;;12.27;100.00
5126;BME280;63008;53.112;8.896;2023-05-11T00:55:49;101399.56;;;12.21;100.00
5126;BME280;63008;53.112;8.896;2023-05-11T00:57:50;101403.31;;;12.25;100.00
5126;BME280;63008;53.112;8.896;2023-05-11T00:59:51;101395.56;;;12.10;100.00
5126;BME280;63008;53.112;8.896;2023-05-11T01:01:52;101401.06;;;12.19;100.00
5126;BME280;63008;53.112;8.896;2023-05-11T01:03:53;101402.31;;;12.21;100.00
5126;BME280;63008;53.112;8.896;2023-05-11T01:08:11;101409.63;;;12.17;100.00
5126;BME280;63008;53.112;8.896;2023-05-11T01:10:26;101408.63;;;12.30;100.00
5126;BME280;63008;53.112;8.896;2023-05-11T01:12:55;101412.28;;;12.43;100.00
5126;BME280;63008;53.112;8.896;2023-05-11T01:17:03;101403.00;;;12.56;100.00
5126;BME280;63008;53.112;8.896;2023-05-11T01:19:17;101405.31;;;12.45;100.00
5126;BME280;63008;53.112;8.896;2023-05-11T01:21:19;101405.34;;;12.37;100.00
5126;BME280;63008;53.112;8.896;2023-05-11T01:28:19;101397.38;;;12.06;100.00
5126;BME280;63008;53.112;8.896;2023-05-11T01:32:43;101408.84;;;12.08;100.00
5126;BME280;63008;53.112;8.896;2023-05-11T01:34:45;101401.88;;;12.11;100.00
5126;BME280;63008;53.112;8.896;2023-05-11T01:36:53;101404.97;;;12.09;100.00
5126;BME280;63008;53.112;8.896;2023-05-11T01:38:57;101404.97;;;12.01;100.00
5126;BME280;63008;53.112;8.896;2023-05-11T01:41:02;101402.22;;;12.01;100.00
5126;BME280;63008;53.112;8.896;2023-05-11T01:43:11;101409.16;;;12.07;100.00
5126;BME280;63008;53.112;8.896;2023-05-11T01:45:13;101411.91;;;12.07;100.00
5126;BME280;63008;53.112;8.896;2023-05-11T01:47:15;101405.41;;;12.20;100.00
5126;BME280;63008;53.112;8.896;2023-05-11T01:49:17;101409.97;;;12.16;100.00
5126;BME280;63008;53.112;8.896;2023-05-11T01:51:19;101415.75;;;12.31;100.00
5126;BME280;63008;53.112;8.896;2023-05-11T01:53:21;101410.72;;;12.25;100.00
5126;BME280;63008;53.112;8.896;2023-05-11T01:55:24;101405.63;;;12.06;100.00
5126;BME280;63008;53.112;8.896;2023-05-11T01:57:25;101409.66;;;12.00;100.00
5126;BME280;63008;53.112;8.896;2023-05-11T01:59:28;101412.88;;;12.02;100.00
5126;BME280;63008;53.112;8.896;2023-05-11T02:01:30;101416.91;;;12.13;100.00
5126;BME280;63008;53.112;8.896;2023-05-11T02:03:34;101425.16;;;12.22;100.00
5126;BME280;63008;53.112;8.896;2023-05-11T02:05:37;101420.00;;;12.12;100.00
5126;BME280;63008;53.112;8.896;2023-05-11T02:07:41;101432.78;;;12.08;100.00
5126;BME280;63008;53.112;8.896;2023-05-11T02:09:43;101430.22;;;12.11;100.00
5126;BME280;63008;53.112;8.896;2023-05-11T02:11:46;101437.53;;;11.99;100.00
5126;BME280;63008;53.112;8.896;2023-05-11T02:13:49;101429.09;;;12.04;100.00
5126;BME280;63008;53.112;8.896;2023-05-11T02:15:53;101430.03;;;12.08;100.00
5126;BME280;63008;53.112;8.896;2023-05-11T02:17:56;101443.63;;;12.04;100.00
5126;BME280;63008;53.112;8.896;2023-05-11T02:19:58;101438.97;;;11.88;100.00
5126;BME280;63008;53.112;8.896;2023-05-11T02:22:02;101435.25;;;11.92;100.00
5126;BME280;63008;53.112;8.896;2023-05-11T02:24:05;101435.41;;;11.96;100.00
5126;BME280;63008;53.112;8.896;2023-05-11T02:26:07;101433.47;;;11.96;100.00
5126;BME280;63008;53.112;8.896;2023-05-11T02:28:08;101432.78;;;12.08;100.00
5126;BME280;63008;53.112;8.896;2023-05-11T02:30:10;101434.59;;;12.04;100.00
5126;BME280;63008;53.112;8.896;2023-05-11T02:32:16;101435.03;;;12.14;100.00
5126;BME280;63008;53.112;8.896;2023-05-11T02:34:28;101438.59;;;12.15;100.00
5126;BME280;63008;53.112;8.896;2023-05-11T02:36:29;101441.34;;;12.15;100.00
5126;BME280;63008;53.112;8.896;2023-05-11T02:38:34;101444.91;;;12.15;100.00
5126;BME280;63008;53.112;8.896;2023-05-11T02:40:42;101442.81;;;12.12;100.00
5126;BME280;63008;53.112;8.896;2023-05-11T02:42:48;101444.44;;;12.13;100.00
5126;BME280;63008;53.112;8.896;2023-05-11T02:44:57;101448.81;;;12.14;100.00
5126;BME280;63008;53.112;8.896;2023-05-11T02:47:01;101452.22;;;12.03;100.00
5126;BME280;63008;53.112;8.896;2023-05-11T02:49:06;101448.69;;;11.85;100.00
5126;BME280;63008;53.112;8.896;2023-05-11T02:51:10;101441.25;;;11.77;100.00
5126;BME280;63008;53.112;8.896;2023-05-11T02:53:14;101452.56;;;11.93;100.00
5126;BME280;63008;53.112;8.896;2023-05-11T02:55:17;101451.59;;;11.89;100.00
5126;BME280;63008;53.112;8.896;2023-05-11T02:57:19;101456.91;;;11.94;100.00
5126;BME280;63008;53.112;8.896;2023-05-11T02:59:21;101449.31;;;11.91;100.00
5126;BME280;63008;53.112;8.896;2023-05-11T03:01:24;101460.16;;;11.96;100.00
5126;BME280;63008;53.112;8.896;2023-05-11T03:03:26;101442.38;;;11.76;100.00
5126;BME280;63008;53.112;8.896;2023-05-11T03:05:27;101453.22;;;11.81;100.00
5126;BME280;63008;53.112;8.896;2023-05-11T03:07:28;101450.94;;;11.83;100.00
5126;BME280;63008;53.112;8.896;2023-05-11T03:09:29;101452.41;;;11.81;100.00
5126;BME280;63008;53.112;8.896;2023-05-11T03:11:30;101455.47;;;11.96;100.00
5126;BME280;63008;53.112;8.896;2023-05-11T03:13:31;101456.09;;;12.10;100.00
5126;BME280;63008;53.112;8.896;2023-05-11T03:15:33;101456.91;;;12.11;100.00
5126;BME280;63008;53.112;8.896;2023-05-11T03:17:35;101460.78;;;12.10;100.00
5126;BME280;63008;53.112;8.896;2023-05-11T03:19:37;101453.00;;;12.20;100.00
5126;BME280;63008;53.112;8.896;2023-05-11T03:21:38;101462.09;;;12.04;100.00
5126;BME280;63008;53.112;8.896;2023-05-11T03:23:39;101458.38;;;12.00;100.00
5126;BME280;63008;53.112;8.896;2023-05-11T03:25:42;101452.56;;;11.93;100.00
5126;BME280;63008;53.112;8.896;2023-05-11T03:27:44;101458.88;;;11.93;100.00
5126;BME280;63008;53.112;8.896;2023-05-11T03:29:46;101453.88;;;11.87;100.00
5126;BME280;63008;53.112;8.896;2023-05-11T03:31:49;101457.91;;;11.98;100.00
5126;BME280;63008;53.112;8.896;2023-05-11T03:33:50;101450.44;;;12.07;100.00
5126;BME280;63008;53.112;8.896;2023-05-11T03:35:52;101452.53;;;12.10;100.00
5126;BME280;63008;53.112;8.896;2023-05-11T03:37:54;101451.09;;;12.04;100.00
5126;BME280;63008;53.112;8.896;2023-05-11T03:39:58;101450.94;;;11.83;100.00
5126;BME280;63008;53.112;8.896;2023-05-11T03:41:59;101449.16;;;11.79;100.00
5126;BME280;63008;53.112;8.896;2023-05-11T03:44:04;101457.09;;;11.97;100.00
5126;BME280;63008;53.112;8.896;2023-05-11T03:46:06;101453.19;;;12.07;100.00
5126;BME280;63008;53.112;8.896;2023-05-11T03:48:07;101460.81;;;11.93;100.00
5126;BME280;63008;53.112;8.896;2023-05-11T03:50:10;101451.91;;;11.87;100.00
5126;BME280;63008;53.112;8.896;2023-05-11T03:52:11;101458.41;;;11.91;100.00
5126;BME280;63008;53.112;8.896;2023-05-11T03:54:12;101458.88;;;12.02;100.00
5126;BME280;63008;53.112;8.896;2023-05-11T03:56:13;101454.63;;;12.04;100.00
5126;BME280;63008;53.112;8.896;2023-05-11T03:58:14;101457.72;;;12.03;100.00
5126;BME280;63008;53.112;8.896;2023-05-11T04:00:16;101460.66;;;12.06;100.00
5126;BME280;63008;53.112;8.896;2023-05-11T04:02:17;101457.41;;;11.96;100.00
5126;BME280;63008;53.112;8.896;2023-05-11T04:04:19;101461.28;;;11.95;100.00
5126;BME280;63008;53.112;8.896;2023-05-11T04:06:20;101453.19;;;11.98;100.00
5126;BME280;63008;53.112;8.896;2023-05-11T04:08:21;101459.19;;;12.00;100.00
5126;BME280;63008;53.112;8.896;2023-05-11T04:10:21;101457.72;;;12.11;100.00
5126;BME280;63008;53.112;8.896;2023-05-11T04:12:23;101458.03;;;12.01;100.00
5126;BME280;63008;53.112;8.896;2023-05-11T04:14:27;101458.22;;;12.05;100.00
5126;BME280;63008;53.112;8.896;2023-05-11T04:16:27;101464.19;;;12.07;100.00
5126;BME280;63008;53.112;8.896;2023-05-11T04:18:28;101468.09;;;11.97;100.00
5126;BME280;63008;53.112;8.896;2023-05-11T04:20:30;101456.78;;;11.90;100.00
5126;BME280;63008;53.112;8.896;2023-05-11T04:22:31;101459.53;;;11.99;100.00
5126;BME280;63008;53.112;8.896;2023-05-11T04:24:32;101465.16;;;11.94;100.00
5126;BME280;63008;53.112;8.896;2023-05-11T04:26:33;101461.44;;;12.07;100.00
5126;BME280;63008;53.112;8.896;2023-05-11T04:28:34;101458.88;;;11.85;100.00
5126;BME280;63008;53.112;8.896;2023-05-11T04:30:35;101458.41;;;11.91;100.00
5126;BME280;63008;53.112;8.896;2023-05-11T04:32:36;101461.63;;;11.93;100.00
5126;BME280;63008;53.112;8.896;2023-05-11T04:34:37;101462.41;;;11.94;100.00
5126;BME280;63008;53.112;8.896;2023-05-11T04:36:40;101459.53;;;11.82;100.00
5126;BME280;63008;53.112;8.896;2023-05-11T04:38:41;101459.38;;;11.70;100.00
5126;BME280;63008;53.112;8.896;2023-05-11T04:40:42;101459.38;;;11.61;100.00
5126;BME280;63008;53.112;8.896;2023-05-11T04:42:43;101463.41;;;11.89;100.00
5126;BME280;63008;53.112;8.896;2023-05-11T04:44:44;101467.91;;;12.02;100.00
5126;BME280;63008;53.112;8.896;2023-05-11T04:46:45;101468.41;;;11.96;100.00
5126;BME280;63008;53.112;8.896;2023-05-11T04:48:46;101458.41;;;11.83;100.00
5126;BME280;63008;53.112;8.896;2023-05-11T04:50:47;101466.97;;;11.81;100.00
5126;BME280;63008;53.112;8.896;2023-05-11T04:52:48;101460.16;;;11.87;100.00
5126;BME280;63008;53.112;8.896;2023-05-11T04:54:49;101467.13;;;11.93;100.00
5126;BME280;63008;53.112;8.896;2023-05-11T04:56:50;101463.25;;;11.86;100.00
5126;BME280;63008;53.112;8.896;2023-05-11T04:58:51;101467.28;;;11.88;100.00
5126;BME280;63008;53.112;8.896;2023-05-11T05:00:52;101462.59;;;11.97;100.00
5126;BME280;63008;53.112;8.896;2023-05-11T05:02:53;101474.25;;;12.03;100.00
5126;BME280;63008;53.112;8.896;2023-05-11T05:04:54;101478.94;;;11.94;100.00
5126;BME280;63008;53.112;8.896;2023-05-11T05:06:55;101473.13;;;11.95;100.00
5126;BME280;63008;53.112;8.896;2023-05-11T05:08:56;101473.28;;;11.90;100.00
5126;BME280;63008;53.112;8.896;2023-05-11T05:10:57;101478.44;;;11.92;100.00
5126;BME280;63008;53.112;8.896;2023-05-11T05:12:58;101476.53;;;11.92;100.00
5126;BME280;63008;53.112;8.896;2023-05-11T05:14:59;101469.72;;;11.81;100.00
5126;BME280;63008;53.112;8.896;2023-05-11T05:17:00;101477.66;;;11.74;100.00
5126;BME280;63008;53.112;8.896;2023-05-11T05:19:01;101478.31;;;11.71;100.00
5126;BME280;63008;53.112;8.896;2023-05-11T05:21:02;101474.41;;;11.64;100.00
5126;BME280;63008;53.112;8.896;2023-05-11T05:23:02;101479.09;;;11.72;100.00
5126;BME280;63008;53.112;8.896;2023-05-11T05:25:04;101477.50;;;11.79;100.00
5126;BME280;63008;53.112;8.896;2023-05-11T05:27:05;101481.06;;;11.80;100.00
5126;BME280;63008;53.112;8.896;2023-05-11T05:29:06;101482.69;;;11.89;100.00
5126;BME280;63008;53.112;8.896;2023-05-11T05:31:07;101477.31;;;11.93;100.00
5126;BME280;63008;53.112;8.896;2023-05-11T05:33:08;101485.25;;;11.94;100.00
5126;BME280;63008;53.112;8.896;2023-05-11T05:35:09;101483.78;;;11.97;100.00
5126;BME280;63008;53.112;8.896;2023-05-11T05:37:10;101486.84;;;12.04;100.00
5126;BME280;63008;53.112;8.896;2023-05-11T05:39:11;101492.00;;;12.14;100.00
5126;BME280;63008;53.112;8.896;2023-05-11T05:41:12;101498.16;;;12.11;100.00
5126;BME280;63008;53.112;8.896;2023-05-11T05:43:13;101497.50;;;12.22;100.00
5126;BME280;63008;53.112;8.896;2023-05-11T05:45:14;101506.41;;;12.28;100.00
5126;BME280;63008;53.112;8.896;2023-05-11T05:47:15;101509.97;;;12.37;100.00
5126;BME280;63008;53.112;8.896;2023-05-11T05:49:16;101509.78;;;12.42;100.00
5126;BME280;63008;53.112;8.896;2023-05-11T05:51:17;101506.69;;;12.52;100.00
5126;BME280;63008;53.112;8.896;2023-05-11T05:53:18;101514.59;;;12.62;99.97
5126;BME280;63008;53.112;8.896;2023-05-11T05:55:19;101519.28;;;12.70;99.11
5126;BME280;63008;53.112;8.896;2023-05-11T05:57:20;101517.00;;;12.72;98.35
5126;BME280;63008;53.112;8.896;2023-05-11T05:59:21;101515.69;;;12.69;98.23
5126;BME280;63008;53.112;8.896;2023-05-11T06:01:23;101522.78;;;12.78;97.72
5126;BME280;63008;53.112;8.896;2023-05-11T06:03:24;101527.78;;;12.85;98.06
5126;BME280;63008;53.112;8.896;2023-05-11T06:05:25;101522.78;;;12.78;98.14
5126;BME280;63008;53.112;8.896;2023-05-11T06:07:26;101528.81;;;12.72;98.48
5126;BME280;63008;53.112;8.896;2023-05-11T06:09:27;101525.16;;;12.43;97.57
5126;BME280;63008;53.112;8.896;2023-05-11T06:11:28;101532.44;;;12.47;98.64
5126;BME280;63008;53.112;8.896;2023-05-11T06:13:29;101530.59;;;12.68;98.47
5126;BME280;63008;53.112;8.896;2023-05-11T06:15:30;101532.91;;;12.58;97.65
5126;BME280;63008;53.112;8.896;2023-05-11T06:17:31;101528.41;;;12.36;98.44
5126;BME280;63008;53.112;8.896;2023-05-11T06:19:32;101532.28;;;12.44;98.67
5126;BME280;63008;53.112;8.896;2023-05-11T06:21:33;101534.22;;;12.52;98.24
5126;BME280;63008;53.112;8.896;2023-05-11T06:23:34;101537.25;;;12.67;97.44
5126;BME280;63008;53.112;8.896;2023-05-11T06:25:35;101531.88;;;12.79;97.83
5126;BME280;63008;53.112;8.896;2023-05-11T06:27:36;101529.94;;;12.71;97.41
5126;BME280;63008;53.112;8.896;2023-05-11T06:29:37;101534.47;;;12.75;97.47
5126;BME280;63008;53.112;8.896;2023-05-11T06:31:38;101530.25;;;12.86;98.20
5126;BME280;63008;53.112;8.896;2023-05-11T06:33:39;101528.44;;;12.99;96.89
5126;BME280;63008;53.112;8.896;2023-05-11T06:35:40;101528.28;;;12.95;96.21
5126;BME280;63008;53.112;8.896;2023-05-11T06:37:41;101538.78;;;13.02;96.44
5126;BME280;63008;53.112;8.896;2023-05-11T06:39:42;101531.63;;;13.09;95.18
5126;BME280;63008;53.112;8.896;2023-05-11T06:41:43;101526.81;;;12.98;96.22
5126;BME280;63008;53.112;8.896;2023-05-11T06:43:44;101531.47;;;13.06;95.94
5126;BME280;63008;53.112;8.896;2023-05-11T06:45:45;101531.28;;;13.11;95.17
5126;BME280;63008;53.112;8.896;2023-05-11T06:47:46;101527.75;;;13.02;94.86
5126;BME280;63008;53.112;8.896;2023-05-11T06:49:47;101536.81;;;13.02;95.99
5126;BME280;63008;53.112;8.896;2023-05-11T06:51:48;101535.59;;;13.20;95.29
5126;BME280;63008;53.112;8.896;2023-05-11T06:53:49;101541.22;;;13.03;95.63
5126;BME280;63008;53.112;8.896;2023-05-11T06:55:50;101532.31;;;12.98;95.03
5126;BME280;63008;53.112;8.896;2023-05-11T06:57:51;101531.19;;;12.99;96.49
5126;BME280;63008;53.112;8.896;2023-05-11T06:59:52;101529.56;;;12.89;95.19
5126;BME280;63008;53.112;8.896;2023-05-11T07:01:53;101536.81;;;13.02;96.35
5126;BME280;63008;53.112;8.896;2023-05-11T07:03:54;101534.38;;;13.09;94.69
5126;BME280;63008;53.112;8.896;2023-05-11T07:05:55;101535.56;;;13.29;95.33
5126;BME280;63008;53.112;8.896;2023-05-11T07:07:56;101532.53;;;13.22;94.72
5126;BME280;63008;53.112;8.896;2023-05-11T07:09:57;101530.66;;;13.34;92.72
5126;BME280;63008;53.112;8.896;2023-05-11T07:11:58;101534.91;;;13.32;93.00
5126;BME280;63008;53.112;8.896;2023-05-11T07:13:59;101531.22;;;13.19;94.22
5126;BME280;63008;53.112;8.896;2023-05-11T07:16:00;101528.47;;;13.19;95.29
5126;BME280;63008;53.112;8.896;2023-05-11T07:18:01;101533.34;;;13.22;95.13
5126;BME280;63008;53.112;8.896;2023-05-11T07:20:02;101542.69;;;13.59;93.50
5126;BME280;63008;53.112;8.896;2023-05-11T07:22:03;101538.25;;;13.66;92.24
5126;BME280;63008;53.112;8.896;2023-05-11T07:24:05;101538.47;;;13.61;93.08
5126;BME280;63008;53.112;8.896;2023-05-11T07:26:06;101539.47;;;13.57;91.99
5126;BME280;63008;53.112;8.896;2023-05-11T07:28:08;101547.41;;;13.58;91.63
5126;BME280;63008;53.112;8.896;2023-05-11T07:30:10;101543.41;;;13.47;90.85
5126;BME280;63008;53.112;8.896;2023-05-11T07:32:11;101542.38;;;13.60;91.60
5126;BME280;63008;53.112;8.896;2023-05-11T07:34:12;101544.44;;;13.63;92.01
5126;BME280;63008;53.112;8.896;2023-05-11T07:36:13;101548.06;;;13.55;92.55
5126;BME280;63008;53.112;8.896;2023-05-11T07:38:17;101547.41;;;13.58;93.55
5126;BME280;63008;53.112;8.896;2023-05-11T07:40:18;101551.31;;;13.57;91.24
5126;BME280;63008;53.112;8.896;2023-05-11T07:42:19;101547.06;;;13.60;91.67
5126;BME280;63008;53.112;8.896;2023-05-11T07:44:20;101551.38;;;13.49;91.59
5126;BME280;63008;53.112;8.896;2023-05-11T07:46:21;101544.38;;;13.22;93.72
5126;BME280;63008;53.112;8.896;2023-05-11T07:48:22;101543.94;;;13.12;93.71
5126;BME280;63008;53.112;8.896;2023-05-11T07:50:23;101544.75;;;13.41;94.48
5126;BME280;63008;53.112;8.896;2023-05-11T07:52:24;101544.50;;;13.55;93.82
5126;BME280;63008;53.112;8.896;2023-05-11T07:54:25;101550.84;;;13.76;92.62
5126;BME280;63008;53.112;8.896;2023-05-11T07:56:26;101543.59;;;13.92;90.99
5126;BME280;63008;53.112;8.896;2023-05-11T07:58:27;101547.22;;;14.04;89.97
5126;BME280;63008;53.112;8.896;2023-05-11T08:00:28;101543.13;;;13.90;91.29
5126;BME280;63008;53.112;8.896;2023-05-11T08:02:29;101548.34;;;13.62;91.95
5126;BME280;63008;53.112;8.896;2023-05-11T08:04:30;101559.63;;;13.49;92.76
5126;BME280;63008;53.112;8.896;2023-05-11T08:06:31;101552.41;;;13.65;92.56
5126;BME280;63008;53.112;8.896;2023-05-11T08:08:32;101560.94;;;13.72;92.07
5126;BME280;63008;53.112;8.896;2023-05-11T08:10:34;101557.72;;;13.90;91.46
5126;BME280;63008;53.112;8.896;2023-05-11T08:12:36;101560.13;;;13.71;91.48
5126;BME280;63008;53.112;8.896;2023-05-11T08:14:37;101554.75;;;13.75;92.11
5126;BME280;63008;53.112;8.896;2023-05-11T08:16:38;101554.81;;;14.07;92.02
5126;BME280;63008;53.112;8.896;2023-05-11T08:18:39;101562.59;;;14.34;89.12
5126;BME280;63008;53.112;8.896;2023-05-11T08:20:40;101557.34;;;14.21;88.61
5126;BME280;63008;53.112;8.896;2023-05-11T08:22:43;101555.03;;;14.02;89.56
5126;BME280;63008;53.112;8.896;2023-05-11T08:24:44;101554.59;;;14.21;91.01
5126;BME280;63008;53.112;8.896;2023-05-11T08:26:45;101557.03;;;14.14;88.76
5126;BME280;63008;53.112;8.896;2023-05-11T08:28:46;101550.59;;;14.10;90.88
5126;BME280;63008;53.112;8.896;2023-05-11T08:30:57;101551.00;;;14.20;90.90
5126;BME280;63008;53.112;8.896;2023-05-11T08:32:58;101551.94;;;14.24;90.42
5126;BME280;63008;53.112;8.896;2023-05-11T08:34:59;101558.06;;;14.30;89.09
5126;BME280;63008;53.112;8.896;2023-05-11T08:37:00;101560.69;;;14.26;89.66
5126;BME280;63008;53.112;8.896;2023-05-11T08:39:01;101556.31;;;14.46;89.18
5126;BME280;63008;53.112;8.896;2023-05-11T08:41:03;101555.72;;;14.84;86.19
5126;BME280;63008;53.112;8.896;2023-05-11T08:43:04;101557.06;;;14.66;86.81
5126;BME280;63008;53.112;8.896;2023-05-11T08:45:07;101559.53;;;14.48;87.89
5126;BME280;63008;53.112;8.896;2023-05-11T08:47:10;101560.75;;;14.38;89.48
5126;BME280;63008;53.112;8.896;2023-05-11T08:49:11;101565.66;;;14.21;88.74
5126;BME280;63008;53.112;8.896;2023-05-11T08:51:14;101558.22;;;14.33;87.97
5126;BME280;63008;53.112;8.896;2023-05-11T08:53:15;101558.69;;;14.35;88.27
5126;BME280;63008;53.112;8.896;2023-05-11T08:55:16;101563.56;;;14.18;88.45
5126;BME280;63008;53.112;8.896;2023-05-11T08:57:18;101560.22;;;14.24;90.14
5126;BME280;63008;53.112;8.896;2023-05-11T08:59:19;101561.06;;;14.25;89.55
5126;BME280;63008;53.112;8.896;2023-05-11T09:01:21;101558.91;;;14.30;89.32
5126;BME280;63008;53.112;8.896;2023-05-11T09:03:22;101560.06;;;14.41;90.23
5126;BME280;63008;53.112;8.896;2023-05-11T09:05:24;101567.03;;;14.47;89.07
5126;BME280;63008;53.112;8.896;2023-05-11T09:07:26;101570.06;;;14.66;89.67
5126;BME280;63008;53.112;8.896;2023-05-11T09:09:28;101568.94;;;14.67;88.07
5126;BME280;63008;53.112;8.896;2023-05-11T09:11:29;101564.56;;;14.78;88.51
5126;BME280;63008;53.112;8.896;2023-05-11T09:13:30;101569.44;;;14.93;87.98
5126;BME280;63008;53.112;8.896;2023-05-11T09:15:31;101574.53;;;15.03;86.53
5126;BME280;63008;53.112;8.896;2023-05-11T09:17:32;101569.44;;;14.81;87.29
5126;BME280;63008;53.112;8.896;2023-05-11T09:19:33;101567.97;;;14.31;89.33
5126;BME280;63008;53.112;8.896;2023-05-11T09:21:37;101570.13;;;14.25;88.82
5126;BME280;63008;53.112;8.896;2023-05-11T09:23:39;101567.75;;;14.15;89.40
5126;BME280;63008;53.112;8.896;2023-05-11T09:25:40;101568.56;;;14.57;91.67
5126;BME280;63008;53.112;8.896;2023-05-11T09:27:42;101567.09;;;14.71;88.45
5126;BME280;63008;53.112;8.896;2023-05-11T09:29:44;101572.94;;;14.69;88.57
5126;BME280;63008;53.112;8.896;2023-05-11T09:31:46;101564.34;;;14.71;88.97
5126;BME280;63008;53.112;8.896;2023-05-11T09:33:47;101572.25;;;14.61;86.35
5126;BME280;63008;53.112;8.896;2023-05-11T09:35:48;101577.00;;;14.72;87.79
5126;BME280;63008;53.112;8.896;2023-05-11T09:38:18;101578.84;;;15.24;84.80
5126;BME280;63008;53.112;8.896;2023-05-11T09:40:20;101573.41;;;15.28;86.05
5126;BME280;63008;53.112;8.896;2023-05-11T09:42:21;101569.59;;;15.20;85.88
5126;BME280;63008;53.112;8.896;2023-05-11T09:44:30;101576.06;;;15.12;84.43
5126;BME280;63008;53.112;8.896;2023-05-11T09:46:31;101572.53;;;15.36;84.49
5126;BME280;63008;53.112;8.896;2023-05-11T09:48:32;101575.06;;;15.53;84.99
5126;BME280;63008;53.112;8.896;2023-05-11T09:50:34;101575.41;;;15.63;81.82
5126;BME280;63008;53.112;8.896;2023-05-11T09:52:48;101573.56;;;15.55;82.78
5126;BME280;63008;53.112;8.896;2023-05-11T09:54:50;101571.13;;;15.30;84.43
5126;BME280;63008;53.112;8.896;2023-05-11T09:56:53;101574.44;;;15.83;81.90
5126;BME280;63008;53.112;8.896;2023-05-11T09:58:54;101575.25;;;15.84;83.21
5126;BME280;63008;53.112;8.896;2023-05-11T10:00:57;101573.34;;;15.60;81.74
5126;BME280;63008;53.112;8.896;2023-05-11T10:03:02;101570.34;;;15.41;83.65
5126;BME280;63008;53.112;8.896;2023-05-11T10:05:11;101574.13;;;15.73;84.71
5126;BME280;63008;53.112;8.896;2023-05-11T10:07:29;101570.72;;;16.03;84.07
5126;BME280;63008;53.112;8.896;2023-05-11T10:09:31;101568.09;;;15.83;81.84
5126;BME280;63008;53.112;8.896;2023-05-11T10:11:32;101571.31;;;15.97;83.49
5126;BME280;63008;53.112;8.896;2023-05-11T10:13:34;101573.69;;;16.10;81.79
5126;BME280;63008;53.112;8.896;2023-05-11T10:15:37;101571.25;;;15.69;81.46
5126;BME280;63008;53.112;8.896;2023-05-11T10:17:38;101571.47;;;15.64;81.13
5126;BME280;63008;53.112;8.896;2023-05-11T10:19:45;101572.16;;;15.73;80.50
5126;BME280;63008;53.112;8.896;2023-05-11T10:21:47;101562.97;;;15.33;80.81
5126;BME280;63008;53.112;8.896;2023-05-11T10:23:48;101562.72;;;15.38;83.74
5126;BME280;63008;53.112;8.896;2023-05-11T10:25:50;101561.13;;;15.61;83.25
5126;BME280;63008;53.112;8.896;2023-05-11T10:27:52;101570.81;;;15.43;82.77
5126;BME280;63008;53.112;8.896;2023-05-11T10:29:53;101556.84;;;15.52;84.93
5126;BME280;63008;53.112;8.896;2023-05-11T10:31:56;101561.19;;;15.65;82.03
5126;BME280;63008;53.112;8.896;2023-05-11T10:34:00;101562.81;;;15.78;83.39
5126;BME280;63008;53.112;8.896;2023-05-11T10:36:01;101563.44;;;16.11;82.39
5126;BME280;63008;53.112;8.896;2023-05-11T10:38:02;101563.69;;;16.06;80.73
5126;BME280;63008;53.112;8.896;2023-05-11T10:40:04;101555.47;;;16.09;81.14
5126;BME280;63008;53.112;8.896;2023-05-11T10:42:27;101560.25;;;16.24;83.51
5126;BME280;63008;53.112;8.896;2023-05-11T10:44:53;101557.88;;;16.11;78.80
5126;BME280;63008;53.112;8.896;2023-05-11T10:47:14;101563.50;;;15.87;80.10
5126;BME280;63008;53.112;8.896;2023-05-11T10:51:37;101563.97;;;15.65;80.95
5126;BME280;63008;53.112;8.896;2023-05-11T11:01:32;101568.16;;;16.50;80.79
5126;BME280;63008;53.112;8.896;2023-05-11T11:03:36;101566.38;;;16.30;80.33
5126;BME280;63008;53.112;8.896;2023-05-11T11:05:37;101561.69;;;16.18;80.12